Ruby, Louisiana
Current Conditions -  °F | °C
As of 9:04 PM on Sunday 21 Dec 2014 (Local Time) from KESF Reporting Station
Overcast Overcast  
Wind Chill: 49°   Ceiling: 400
Heat Index: 49°   Visibility: 10mi
Dew Point: 48°   Wind: 0mph
Humidity: 97%   Direction: NA
Pressure: 29.95"   Gusts: NA
Location:  31.19°N, 92.25°W
Report Text: KESF 220304Z AUTO 00000KT 10SM OVC004 09/09 A2995 RMK AO2 T00940089
Loading
Personal Weather Stations






























Interactive Weather Map New forecast layout! Learn more

10-Day Weather Forecast

Advertisements
Track Severe Weather on mobile